quickservicepanama.com alexa rank chart, quickservicepanama.com alexa rank daily changes

quickservicepanama.com alexa rank chart, quickservicepanama.com alexa rank daily changes

quickservicepanama.com
Actual rank:
636 489

RANK HISTORY

Date Rank Diff
2017/05/26 636 489 -64 770
2017/05/25 701 259 -24 349
2017/05/24 725 608 -25 080
2017/05/23 750 688 +23 813
2017/05/22 726 875 +17 150
2017/05/21 709 725 +11 217
2017/05/20 698 508 +1 387
2017/05/19 697 121 +23 419
2017/05/18 673 702 +18 827
2017/05/17 654 875 -17 389
2017/05/16 672 264 -831
2017/05/15 673 095 -1 808
2017/05/14 674 903 +24 991
2017/05/13 649 912 +7 911
2017/05/12 642 001 -3 781
2017/05/11 645 782 +10 365
2017/05/10 635 417 +12 980
2017/05/09 622 437 +19 500
2017/05/08 602 937 +14 241
2017/05/07 588 696 -1 991
2017/05/06 590 687 +78
2017/05/05 590 609 -3 589
2017/05/04 594 198 -2 497
2017/05/03 596 695 +24 952
2017/05/02 571 743 +30 143
2017/05/01 541 600 +17 588
2017/04/30 524 012 +1 549
2017/04/29 522 463 -71
2017/04/28 522 534 -10 797
2017/04/27 533 331 -12 789
2017/04/26 546 120 +14 287
2017/04/25 531 833 -1 651
2017/04/24 533 484 +11 156
2017/04/23 522 328 +5 133
2017/04/22 517 195 +11 700
2017/04/21 505 495 -2 678
2017/04/20 508 173 +20 210
2017/04/19 487 963 -253
2017/04/18 488 216 -21 735
2017/04/17 509 951 +8 325
2017/04/16 501 626 +8 224
2017/04/15 493 402 +9 078
2017/04/14 484 324 +1 737
2017/04/13 482 587 -132
2017/04/12 482 719 +446
2017/04/11 482 273 -14 125
2017/04/10 496 398 +5 270
2017/04/09 491 128 -2 194
2017/04/08 493 322 +10 075
2017/04/07 483 247 -9 621
2017/04/06 492 868 -490
2017/04/05 493 358 -8 447
2017/04/04 501 805 -24 964
2017/04/03 526 769 -10 107
2017/04/02 536 876 -6 788
2017/04/01 543 664 -10 076
2017/03/31 553 740 -17 380
2017/03/30 571 120 -15 001
2017/03/29 586 121 -22 468
2017/03/28 608 589 -533
2017/03/27 609 122

WIDGET FOR YOUR SITE

DOMAINS WITH THE NEAREST RANK

Domain Rank
dontrkonme.com 636 484
zagorje-international.hr 636 485
artistrising.com 636 486
acmeitalia.it 636 487
flippdf.com 636 488
quickservicepanama.com 636 489
real-time-traffic.net 636 490
internetspeedutility.net 636 491
amfeltec.com 636 492
damodareventcinemas.com.fj 636 493
gay-live-cams.com 636 494

DOMAINS WITH THE NEAREST RANK BY TLD .com

Domain Rank
megabusgold.com 636 478
najibrazak.com 636 483
dontrkonme.com 636 484
artistrising.com 636 486
flippdf.com 636 488
quickservicepanama.com 636 489
amfeltec.com 636 492
gay-live-cams.com 636 494
abreva.com 636 495
waynehomes.com 636 499
wildpigsnation.com 636 500